sensor_id;sensor_type;location;lat;lon;timestamp;pressure;altitude;pressure_sealevel;temperature;humidity
31239;BME280;17871;31.584;74.450;2023-04-09T00:01:41;98763.00;;;22.95;68.05
31239;BME280;17871;31.584;74.450;2023-04-09T00:04:10;98761.88;;;23.02;67.21
31239;BME280;17871;31.584;74.450;2023-04-09T00:06:40;98769.69;;;23.02;67.54
31239;BME280;17871;31.584;74.450;2023-04-09T00:09:08;98777.78;;;22.94;68.12
31239;BME280;17871;31.584;74.450;2023-04-09T00:11:38;98779.53;;;22.94;68.63
31239;BME280;17871;31.584;74.450;2023-04-09T00:14:07;98784.59;;;22.98;68.28
31239;BME280;17871;31.584;74.450;2023-04-09T00:16:36;98789.06;;;22.95;68.62
31239;BME280;17871;31.584;74.450;2023-04-09T00:19:05;98799.22;;;22.78;69.22
31239;BME280;17871;31.584;74.450;2023-04-09T00:21:35;98790.16;;;22.63;69.85
31239;BME280;17871;31.584;74.450;2023-04-09T00:24:05;98793.31;;;22.72;70.30
31239;BME280;17871;31.584;74.450;2023-04-09T00:26:34;98791.53;;;22.74;70.48
31239;BME280;17871;31.584;74.450;2023-04-09T00:29:03;98793.22;;;22.49;71.60
31239;BME280;17871;31.584;74.450;2023-04-09T00:31:33;98793.06;;;22.54;71.63
31239;BME280;17871;31.584;74.450;2023-04-09T00:34:02;98790.59;;;22.51;70.96
31239;BME280;17871;31.584;74.450;2023-04-09T00:36:31;98806.34;;;22.46;71.50
31239;BME280;17871;31.584;74.450;2023-04-09T00:39:00;98802.75;;;22.50;70.91
31239;BME280;17871;31.584;74.450;2023-04-09T00:41:29;98804.13;;;22.36;71.74
31239;BME280;17871;31.584;74.450;2023-04-09T00:43:59;98806.78;;;22.34;71.79
31239;BME280;17871;31.584;74.450;2023-04-09T00:46:29;98803.44;;;22.31;71.26
31239;BME280;17871;31.584;74.450;2023-04-09T00:48:59;98822.50;;;22.31;72.04
31239;BME280;17871;31.584;74.450;2023-04-09T00:51:28;98821.44;;;22.37;70.86
31239;BME280;17871;31.584;74.450;2023-04-09T00:53:57;98811.44;;;22.24;71.84
31239;BME280;17871;31.584;74.450;2023-04-09T00:56:27;98805.72;;;22.13;72.91
31239;BME280;17871;31.584;74.450;2023-04-09T00:58:58;98806.69;;;22.11;72.66
31239;BME280;17871;31.584;74.450;2023-04-09T01:01:27;98812.63;;;22.16;73.07
31239;BME280;17871;31.584;74.450;2023-04-09T01:03:57;98799.97;;;22.30;72.04
31239;BME280;17871;31.584;74.450;2023-04-09T01:12:20;98815.78;;;22.50;71.47
31239;BME280;17871;31.584;74.450;2023-04-09T01:15:04;98806.34;;;22.46;72.21
31239;BME280;17871;31.584;74.450;2023-04-09T01:17:58;98816.75;;;22.48;72.02
31239;BME280;17871;31.584;74.450;2023-04-09T01:20:51;98822.72;;;22.50;72.51
31239;BME280;17871;31.584;74.450;2023-04-09T01:28:56;98832.50;;;22.43;73.62
31239;BME280;17871;31.584;74.450;2023-04-09T01:31:31;98835.72;;;22.51;73.09
31239;BME280;17871;31.584;74.450;2023-04-09T01:34:02;98837.72;;;22.69;71.77
31239;BME280;17871;31.584;74.450;2023-04-09T01:36:33;98843.94;;;22.65;72.29
31239;BME280;17871;31.584;74.450;2023-04-09T01:39:04;98847.03;;;22.77;71.72
31239;BME280;17871;31.584;74.450;2023-04-09T01:41:35;98847.66;;;22.83;72.36
31239;BME280;17871;31.584;74.450;2023-04-09T01:44:06;98850.56;;;22.99;71.57
31239;BME280;17871;31.584;74.450;2023-04-09T01:46:39;98857.97;;;23.11;70.33
31239;BME280;17871;31.584;74.450;2023-04-09T01:49:09;98855.03;;;23.20;70.15
31239;BME280;17871;31.584;74.450;2023-04-09T01:51:39;98853.91;;;23.27;71.05
31239;BME280;17871;31.584;74.450;2023-04-09T01:54:09;98857.06;;;23.35;71.26
31239;BME280;17871;31.584;74.450;2023-04-09T01:56:44;98860.16;;;23.46;71.34
31239;BME280;17871;31.584;74.450;2023-04-09T01:59:14;98873.44;;;23.40;71.47
31239;BME280;17871;31.584;74.450;2023-04-09T02:01:46;98870.84;;;23.63;69.10
31239;BME280;17871;31.584;74.450;2023-04-09T02:04:21;98870.34;;;23.75;69.67
31239;BME280;17871;31.584;74.450;2023-04-09T02:07:05;98883.63;;;23.93;69.67
31239;BME280;17871;31.584;74.450;2023-04-09T02:09:39;98884.38;;;23.95;69.26
31239;BME280;17871;31.584;74.450;2023-04-09T02:12:11;98882.06;;;24.10;69.54
31239;BME280;17871;31.584;74.450;2023-04-09T02:14:44;98886.84;;;24.21;69.71
31239;BME280;17871;31.584;74.450;2023-04-09T02:17:15;98894.53;;;24.25;69.67
31239;BME280;17871;31.584;74.450;2023-04-09T02:19:46;98899.31;;;24.36;69.29
31239;BME280;17871;31.584;74.450;2023-04-09T02:22:16;98905.88;;;24.46;68.07
31239;BME280;17871;31.584;74.450;2023-04-09T02:24:45;98915.09;;;24.55;67.89
31239;BME280;17871;31.584;74.450;2023-04-09T02:27:14;98913.84;;;24.63;67.14
31239;BME280;17871;31.584;74.450;2023-04-09T02:29:44;98922.13;;;24.74;66.89
31239;BME280;17871;31.584;74.450;2023-04-09T02:32:14;98919.84;;;24.87;66.41
31239;BME280;17871;31.584;74.450;2023-04-09T02:34:43;98924.00;;;24.93;65.58
31239;BME280;17871;31.584;74.450;2023-04-09T02:37:13;98922.88;;;24.98;65.12
31239;BME280;17871;31.584;74.450;2023-04-09T02:39:43;98927.66;;;25.09;65.26
31239;BME280;17871;31.584;74.450;2023-04-09T02:42:12;98934.13;;;25.20;65.18
31239;BME280;17871;31.584;74.450;2023-04-09T02:44:41;98934.69;;;25.27;65.53
31239;BME280;17871;31.584;74.450;2023-04-09T02:47:13;98936.13;;;25.34;65.24
31239;BME280;17871;31.584;74.450;2023-04-09T02:49:42;98943.53;;;25.45;64.30
31239;BME280;17871;31.584;74.450;2023-04-09T02:52:11;98943.38;;;25.48;63.96
31239;BME280;17871;31.584;74.450;2023-04-09T02:54:41;98947.38;;;25.56;63.36
31239;BME280;17871;31.584;74.450;2023-04-09T02:57:10;98947.91;;;25.64;62.07
31239;BME280;17871;31.584;74.450;2023-04-09T02:59:39;98957.44;;;25.65;62.01
31239;BME280;17871;31.584;74.450;2023-04-09T03:02:08;98956.06;;;25.77;61.91
31239;BME280;17871;31.584;74.450;2023-04-09T03:04:38;98965.34;;;25.84;62.22
31239;BME280;17871;31.584;74.450;2023-04-09T03:07:07;98958.97;;;25.90;61.88
31239;BME280;17871;31.584;74.450;2023-04-09T03:09:36;98957.47;;;26.03;60.78
31239;BME280;17871;31.584;74.450;2023-04-09T03:12:05;98963.38;;;26.08;59.69
31239;BME280;17871;31.584;74.450;2023-04-09T03:14:35;98966.53;;;26.14;59.20
31239;BME280;17871;31.584;74.450;2023-04-09T03:17:04;98967.84;;;26.24;59.37
31239;BME280;17871;31.584;74.450;2023-04-09T03:19:33;98972.72;;;26.32;58.94
31239;BME280;17871;31.584;74.450;2023-04-09T03:22:02;98967.16;;;26.38;58.09
31239;BME280;17871;31.584;74.450;2023-04-09T03:24:32;98971.16;;;26.47;58.25
31239;BME280;17871;31.584;74.450;2023-04-09T03:27:04;98975.88;;;26.57;58.30
31239;BME280;17871;31.584;74.450;2023-04-09T03:29:34;98978.03;;;26.66;58.28
31239;BME280;17871;31.584;74.450;2023-04-09T03:32:04;98981.91;;;26.76;57.88
31239;BME280;17871;31.584;74.450;2023-04-09T03:34:33;98978.09;;;26.84;57.75
31239;BME280;17871;31.584;74.450;2023-04-09T03:37:04;98979.19;;;26.97;57.67
31239;BME280;17871;31.584;74.450;2023-04-09T03:39:33;98989.38;;;27.03;56.53
31239;BME280;17871;31.584;74.450;2023-04-09T03:42:02;98987.03;;;27.14;56.73
31239;BME280;17871;31.584;74.450;2023-04-09T03:44:41;98988.28;;;27.24;56.33
31239;BME280;17871;31.584;74.450;2023-04-09T03:47:14;98993.41;;;27.44;57.10
31239;BME280;17871;31.584;74.450;2023-04-09T03:49:44;98992.16;;;27.51;56.48
31239;BME280;17871;31.584;74.450;2023-04-09T03:52:23;98995.31;;;27.58;55.87
31239;BME280;17871;31.584;74.450;2023-04-09T03:55:06;98991.81;;;27.74;55.05
31239;BME280;17871;31.584;74.450;2023-04-09T03:57:35;99007.00;;;27.85;53.77
31239;BME280;17871;31.584;74.450;2023-04-09T04:00:08;99001.94;;;27.98;53.16
31239;BME280;17871;31.584;74.450;2023-04-09T04:02:50;99001.81;;;28.16;52.76
31239;BME280;17871;31.584;74.450;2023-04-09T04:05:39;99009.97;;;28.27;53.46
31239;BME280;17871;31.584;74.450;2023-04-09T04:08:12;99004.63;;;28.45;53.60
31239;BME280;17871;31.584;74.450;2023-04-09T04:10:41;99014.03;;;28.49;52.76
31239;BME280;17871;31.584;74.450;2023-04-09T04:13:13;99004.44;;;28.63;52.20
31239;BME280;17871;31.584;74.450;2023-04-09T04:15:48;99007.94;;;28.79;51.99
31239;BME280;17871;31.584;74.450;2023-04-09T04:18:21;99012.34;;;28.95;51.64
31239;BME280;17871;31.584;74.450;2023-04-09T04:20:52;99003.63;;;29.08;50.90
31239;BME280;17871;31.584;74.450;2023-04-09T04:23:21;99018.47;;;29.09;51.38
31239;BME280;17871;31.584;74.450;2023-04-09T04:25:57;99017.69;;;29.23;50.99
31239;BME280;17871;31.584;74.450;2023-04-09T04:28:31;99009.25;;;29.32;50.91
31239;BME280;17871;31.584;74.450;2023-04-09T04:31:01;99008.38;;;29.61;50.28
31239;BME280;17871;31.584;74.450;2023-04-09T04:33:31;99011.22;;;29.72;47.60
31239;BME280;17871;31.584;74.450;2023-04-09T04:36:09;99016.53;;;29.87;46.74
31239;BME280;17871;31.584;74.450;2023-04-09T04:38:41;99012.75;;;30.05;46.79
31239;BME280;17871;31.584;74.450;2023-04-09T04:41:33;99016.31;;;30.18;45.63
31239;BME280;17871;31.584;74.450;2023-04-09T04:44:08;99014.78;;;30.28;44.71
31239;BME280;17871;31.584;74.450;2023-04-09T04:46:39;99010.47;;;30.41;45.20
31239;BME280;17871;31.584;74.450;2023-04-09T04:49:08;99009.88;;;30.36;44.14
31239;BME280;17871;31.584;74.450;2023-04-09T04:51:44;99013.94;;;30.42;43.24
31239;BME280;17871;31.584;74.450;2023-04-09T04:54:15;99015.84;;;30.66;43.58
31239;BME280;17871;31.584;74.450;2023-04-09T04:56:50;99005.38;;;30.79;41.61
31239;BME280;17871;31.584;74.450;2023-04-09T04:59:31;99005.81;;;30.85;41.28
31239;BME280;17871;31.584;74.450;2023-04-09T05:02:06;99003.53;;;30.79;40.33
31239;BME280;17871;31.584;74.450;2023-04-09T05:04:46;99007.53;;;30.99;39.27
31239;BME280;17871;31.584;74.450;2023-04-09T05:07:18;98991.53;;;31.15;39.57
31239;BME280;17871;31.584;74.450;2023-04-09T05:09:50;98994.06;;;31.29;38.46
31239;BME280;17871;31.584;74.450;2023-04-09T05:12:19;98992.94;;;31.33;38.50
31239;BME280;17871;31.584;74.450;2023-04-09T05:14:51;98987.00;;;31.42;36.88
31239;BME280;17871;31.584;74.450;2023-04-09T05:17:20;98986.88;;;31.58;37.68
31239;BME280;17871;31.584;74.450;2023-04-09T05:19:51;98991.19;;;31.59;35.41
31239;BME280;17871;31.584;74.450;2023-04-09T05:22:27;98990.75;;;31.52;34.98
31239;BME280;17871;31.584;74.450;2023-04-09T05:24:56;98982.06;;;31.75;34.95
31239;BME280;17871;31.584;74.450;2023-04-09T05:27:25;98995.19;;;31.89;34.62
31239;BME280;17871;31.584;74.450;2023-04-09T05:29:59;98988.94;;;31.91;32.94
31239;BME280;17871;31.584;74.450;2023-04-09T05:32:29;98987.88;;;32.06;33.25
31239;BME280;17871;31.584;74.450;2023-04-09T05:34:59;98984.59;;;32.15;34.21
31239;BME280;17871;31.584;74.450;2023-04-09T05:37:30;98981.31;;;32.24;32.04
31239;BME280;17871;31.584;74.450;2023-04-09T05:40:00;98978.47;;;32.38;32.32
31239;BME280;17871;31.584;74.450;2023-04-09T05:42:30;98973.97;;;32.51;32.45
31239;BME280;17871;31.584;74.450;2023-04-09T05:45:03;98974.50;;;32.56;32.31
31239;BME280;17871;31.584;74.450;2023-04-09T05:47:32;98973.50;;;32.46;30.24
31239;BME280;17871;31.584;74.450;2023-04-09T05:50:10;98975.81;;;32.74;31.55
31239;BME280;17871;31.584;74.450;2023-04-09T05:52:40;98974.19;;;32.84;30.44
31239;BME280;17871;31.584;74.450;2023-04-09T05:55:11;98968.56;;;32.89;30.30
31239;BME280;17871;31.584;74.450;2023-04-09T05:57:52;98969.88;;;32.95;29.94
31239;BME280;17871;31.584;74.450;2023-04-09T06:00:21;98975.94;;;33.08;30.59
31239;BME280;17871;31.584;74.450;2023-04-09T06:02:50;98972.44;;;32.96;29.75
31239;BME280;17871;31.584;74.450;2023-04-09T06:05:19;98960.06;;;33.08;30.80
31239;BME280;17871;31.584;74.450;2023-04-09T06:07:48;98968.34;;;33.03;30.80
31239;BME280;17871;31.584;74.450;2023-04-09T06:10:18;98958.56;;;32.93;29.62
31239;BME280;17871;31.584;74.450;2023-04-09T06:12:48;98968.31;;;33.27;30.48
31239;BME280;17871;31.584;74.450;2023-04-09T06:15:17;98954.00;;;33.29;29.69
31239;BME280;17871;31.584;74.450;2023-04-09T06:17:46;98956.19;;;33.47;29.35
31239;BME280;17871;31.584;74.450;2023-04-09T06:20:15;98954.41;;;33.58;30.91
31239;BME280;17871;31.584;74.450;2023-04-09T06:22:44;98951.63;;;33.60;29.92
31239;BME280;17871;31.584;74.450;2023-04-09T06:25:13;98952.47;;;33.60;28.75
31239;BME280;17871;31.584;74.450;2023-04-09T06:27:43;98951.63;;;33.60;28.54
31239;BME280;17871;31.584;74.450;2023-04-09T06:30:12;98944.81;;;33.68;27.93
31239;BME280;17871;31.584;74.450;2023-04-09T06:32:41;98949.13;;;33.69;29.63
31239;BME280;17871;31.584;74.450;2023-04-09T06:35:21;98941.88;;;33.60;28.12
31239;BME280;17871;31.584;74.450;2023-04-09T06:37:50;98943.81;;;33.69;29.27
31239;BME280;17871;31.584;74.450;2023-04-09T06:40:19;98942.81;;;33.48;28.87
31239;BME280;17871;31.584;74.450;2023-04-09T06:42:50;98941.88;;;33.60;27.60
31239;BME280;17871;31.584;74.450;2023-04-09T06:45:26;98943.38;;;33.75;27.13
31239;BME280;17871;31.584;74.450;2023-04-09T06:47:56;98933.00;;;33.61;27.98
31239;BME280;17871;31.584;74.450;2023-04-09T06:50:25;98932.84;;;33.52;28.39
31239;BME280;17871;31.584;74.450;2023-04-09T06:52:55;98929.00;;;33.78;28.60
31239;BME280;17871;31.584;74.450;2023-04-09T06:55:24;98925.84;;;33.73;27.15
31239;BME280;17871;31.584;74.450;2023-04-09T06:57:54;98918.03;;;33.71;27.36
31239;BME280;17871;31.584;74.450;2023-04-09T07:00:23;98912.97;;;33.79;28.37
31239;BME280;17871;31.584;74.450;2023-04-09T07:02:52;98910.56;;;33.65;27.06
31239;BME280;17871;31.584;74.450;2023-04-09T07:05:22;98916.09;;;33.73;26.50
31239;BME280;17871;31.584;74.450;2023-04-09T07:07:51;98910.66;;;33.86;26.51
31239;BME280;17871;31.584;74.450;2023-04-09T07:10:21;98904.28;;;33.77;25.75
31239;BME280;17871;31.584;74.450;2023-04-09T07:12:50;98905.34;;;33.97;26.24
31239;BME280;17871;31.584;74.450;2023-04-09T07:15:19;98911.28;;;34.12;23.73
31239;BME280;17871;31.584;74.450;2023-04-09T07:17:48;98910.03;;;34.05;21.60
31239;BME280;17871;31.584;74.450;2023-04-09T07:20:17;98904.72;;;34.27;22.05
31239;BME280;17871;31.584;74.450;2023-04-09T07:22:46;98904.47;;;34.19;21.12
31239;BME280;17871;31.584;74.450;2023-04-09T07:25:15;98891.75;;;34.45;21.86
31239;BME280;17871;31.584;74.450;2023-04-09T07:27:44;98889.81;;;34.47;21.72
31239;BME280;17871;31.584;74.450;2023-04-09T07:30:14;98883.66;;;34.46;23.13
31239;BME280;17871;31.584;74.450;2023-04-09T07:32:43;98886.25;;;34.57;23.49
31239;BME280;17871;31.584;74.450;2023-04-09T07:35:12;98881.13;;;34.45;22.01
31239;BME280;17871;31.584;74.450;2023-04-09T07:37:41;98879.63;;;34.31;21.91
31239;BME280;17871;31.584;74.450;2023-04-09T07:40:11;98874.81;;;34.25;23.61
31239;BME280;17871;31.584;74.450;2023-04-09T07:42:40;98872.44;;;34.42;24.75
31239;BME280;17871;31.584;74.450;2023-04-09T07:45:09;98862.75;;;34.53;24.87
31239;BME280;17871;31.584;74.450;2023-04-09T07:47:39;98856.94;;;34.27;24.04
31239;BME280;17871;31.584;74.450;2023-04-09T07:50:11;98864.88;;;34.38;22.18
31239;BME280;17871;31.584;74.450;2023-04-09T07:52:40;98861.75;;;34.33;22.57
31239;BME280;17871;31.584;74.450;2023-04-09T07:55:10;98861.72;;;34.65;23.03
31239;BME280;17871;31.584;74.450;2023-04-09T07:57:39;98859.03;;;34.44;22.63
31239;BME280;17871;31.584;74.450;2023-04-09T08:00:08;98855.66;;;34.42;22.57
31239;BME280;17871;31.584;74.450;2023-04-09T08:02:42;98844.13;;;34.32;22.60
31239;BME280;17871;31.584;74.450;2023-04-09T08:05:12;98845.56;;;34.36;22.54
31239;BME280;17871;31.584;74.450;2023-04-09T08:07:41;98843.44;;;34.51;21.59
31239;BME280;17871;31.584;74.450;2023-04-09T08:10:11;98835.59;;;34.49;21.34
31239;BME280;17871;31.584;74.450;2023-04-09T08:12:42;98839.47;;;34.45;21.24
31239;BME280;17871;31.584;74.450;2023-04-09T08:15:12;98828.59;;;34.80;22.74
31239;BME280;17871;31.584;74.450;2023-04-09T08:17:41;98826.50;;;34.83;20.61
31239;BME280;17871;31.584;74.450;2023-04-09T08:20:10;98821.09;;;34.95;21.01
31239;BME280;17871;31.584;74.450;2023-04-09T08:22:40;98816.16;;;34.80;20.58
31239;BME280;17871;31.584;74.450;2023-04-09T08:25:09;98809.13;;;35.00;22.13
31239;BME280;17871;31.584;74.450;2023-04-09T08:27:38;98807.91;;;34.83;22.02
31239;BME280;17871;31.584;74.450;2023-04-09T08:30:08;98808.44;;;34.77;20.72
31239;BME280;17871;31.584;74.450;2023-04-09T08:32:37;98799.91;;;35.04;22.80
31239;BME280;17871;31.584;74.450;2023-04-09T08:35:07;98782.88;;;35.07;21.76
31239;BME280;17871;31.584;74.450;2023-04-09T08:37:37;98786.72;;;34.93;21.38
31239;BME280;17871;31.584;74.450;2023-04-09T08:40:07;98785.97;;;34.61;21.71
31239;BME280;17871;31.584;74.450;2023-04-09T08:42:43;98775.78;;;34.86;22.01
31239;BME280;17871;31.584;74.450;2023-04-09T08:45:15;98783.53;;;34.99;22.15
31239;BME280;17871;31.584;74.450;2023-04-09T08:47:44;98776.78;;;34.95;22.96
31239;BME280;17871;31.584;74.450;2023-04-09T08:50:16;98774.97;;;34.96;23.04
31239;BME280;17871;31.584;74.450;2023-04-09T08:52:48;98769.09;;;34.92;22.50
31239;BME280;17871;31.584;74.450;2023-04-09T08:55:17;98763.28;;;35.08;22.48
31239;BME280;17871;31.584;74.450;2023-04-09T08:57:46;98758.50;;;35.02;22.53
31239;BME280;17871;31.584;74.450;2023-04-09T09:00:15;98758.22;;;35.05;22.76
31239;BME280;17871;31.584;74.450;2023-04-09T09:03:05;98750.25;;;35.05;22.79
31239;BME280;17871;31.584;74.450;2023-04-09T09:05:43;98739.34;;;35.08;22.40
31239;BME280;17871;31.584;74.450;2023-04-09T09:08:23;98745.31;;;34.90;22.61
31239;BME280;17871;31.584;74.450;2023-04-09T09:10:52;98740.00;;;34.90;22.95
31239;BME280;17871;31.584;74.450;2023-04-09T09:15:54;98731.28;;;34.79;23.13
31239;BME280;17871;31.584;74.450;2023-04-09T09:18:41;98724.88;;;34.91;22.86
31239;BME280;17871;31.584;74.450;2023-04-09T09:21:12;98722.63;;;34.77;24.18
31239;BME280;17871;31.584;74.450;2023-04-09T09:23:42;98724.16;;;34.79;23.85
31239;BME280;17871;31.584;74.450;2023-04-09T09:26:13;98720.53;;;34.60;24.23
31239;BME280;17871;31.584;74.450;2023-04-09T09:28:45;98712.69;;;34.58;24.56
31239;BME280;17871;31.584;74.450;2023-04-09T09:31:19;98699.09;;;34.72;23.64
31239;BME280;17871;31.584;74.450;2023-04-09T09:33:49;98697.81;;;34.46;24.15
31239;BME280;17871;31.584;74.450;2023-04-09T09:36:32;98702.16;;;34.47;24.44
31239;BME280;17871;31.584;74.450;2023-04-09T09:39:02;98691.31;;;34.60;24.78
31239;BME280;17871;31.584;74.450;2023-04-09T09:41:32;98695.53;;;34.41;24.53
31239;BME280;17871;31.584;74.450;2023-04-09T09:44:01;98695.84;;;34.48;24.46
31239;BME280;17871;31.584;74.450;2023-04-09T09:46:36;98691.88;;;34.33;24.19
31239;BME280;17871;31.584;74.450;2023-04-09T09:49:07;98684.09;;;34.41;24.93
31239;BME280;17871;31.584;74.450;2023-04-09T09:51:38;98686.06;;;34.18;24.78
31239;BME280;17871;31.584;74.450;2023-04-09T09:54:09;98675.03;;;34.23;24.96
31239;BME280;17871;31.584;74.450;2023-04-09T09:56:41;98667.53;;;34.28;23.71
31239;BME280;17871;31.584;74.450;2023-04-09T09:59:22;98666.34;;;34.41;25.11
31239;BME280;17871;31.584;74.450;2023-04-09T10:01:59;98651.41;;;34.40;25.28
31239;BME280;17871;31.584;74.450;2023-04-09T10:04:33;98658.44;;;34.10;25.31
31239;BME280;17871;31.584;74.450;2023-04-09T10:07:06;98655.94;;;34.08;25.05
31239;BME280;17871;31.584;74.450;2023-04-09T10:09:37;98646.00;;;34.21;25.94
31239;BME280;17871;31.584;74.450;2023-04-09T10:12:08;98642.53;;;34.10;26.14
31239;BME280;17871;31.584;74.450;2023-04-09T10:14:39;98636.78;;;34.05;24.82
31239;BME280;17871;31.584;74.450;2023-04-09T10:17:09;98633.34;;;33.93;25.99
31239;BME280;17871;31.584;74.450;2023-04-09T10:19:43;98632.56;;;34.02;24.96
31239;BME280;17871;31.584;74.450;2023-04-09T10:22:17;98632.41;;;34.15;26.47
31239;BME280;17871;31.584;74.450;2023-04-09T10:24:50;98625.72;;;34.00;24.96
31239;BME280;17871;31.584;74.450;2023-04-09T10:27:20;98623.91;;;34.00;25.93
31239;BME280;17871;31.584;74.450;2023-04-09T10:29:49;98616.78;;;34.01;26.29
31239;BME280;17871;31.584;74.450;2023-04-09T10:32:22;98607.56;;;33.95;26.92
31239;BME280;17871;31.584;74.450;2023-04-09T10:34:56;98609.88;;;33.88;26.13
31239;BME280;17871;31.584;74.450;2023-04-09T10:37:27;98606.06;;;33.81;25.67
31239;BME280;17871;31.584;74.450;2023-04-09T10:39:56;98603.19;;;33.73;25.61
31239;BME280;17871;31.584;74.450;2023-04-09T10:42:31;98601.09;;;33.88;25.21
31239;BME280;17871;31.584;74.450;2023-04-09T10:45:08;98597.31;;;33.90;25.64
31239;BME280;17871;31.584;74.450;2023-04-09T10:47:39;98589.75;;;33.65;25.16
31239;BME280;17871;31.584;74.450;2023-04-09T10:52:55;98579.88;;;33.88;26.21
31239;BME280;17871;31.584;74.450;2023-04-09T10:55:39;98579.91;;;33.98;26.98
31239;BME280;17871;31.584;74.450;2023-04-09T10:58:10;98574.78;;;33.75;26.50
31239;BME280;17871;31.584;74.450;2023-04-09T11:00:42;98571.31;;;33.64;26.53
31239;BME280;17871;31.584;74.450;2023-04-09T11:03:29;98563.94;;;33.67;25.78
31239;BME280;17871;31.584;74.450;2023-04-09T11:06:05;98563.63;;;33.81;26.03
31239;BME280;17871;31.584;74.450;2023-04-09T11:08:38;98561.00;;;33.50;25.71
31239;BME280;17871;31.584;74.450;2023-04-09T11:11:09;98565.66;;;33.57;25.60
31239;BME280;17871;31.584;74.450;2023-04-09T11:13:39;98566.09;;;33.73;26.67
31239;BME280;17871;31.584;74.450;2023-04-09T11:16:10;98557.53;;;33.70;25.84
31239;BME280;17871;31.584;74.450;2023-04-09T11:18:52;98554.00;;;33.80;26.90
31239;BME280;17871;31.584;74.450;2023-04-09T11:21:27;98550.91;;;33.75;27.79
31239;BME280;17871;31.584;74.450;2023-04-09T11:23:56;98549.84;;;33.67;26.75
31239;BME280;17871;31.584;74.450;2023-04-09T11:26:34;98544.53;;;33.67;26.61
31239;BME280;17871;31.584;74.450;2023-04-09T11:29:05;98546.16;;;33.58;26.31
31239;BME280;17871;31.584;74.450;2023-04-09T11:31:37;98543.75;;;33.55;26.83
31239;BME280;17871;31.584;74.450;2023-04-09T11:34:09;98549.38;;;33.41;26.31
31239;BME280;17871;31.584;74.450;2023-04-09T11:36:40;98548.91;;;33.57;26.32
31239;BME280;17871;31.584;74.450;2023-04-09T11:39:09;98546.94;;;33.49;25.98
31239;BME280;17871;31.584;74.450;2023-04-09T11:41:38;98545.56;;;33.55;26.52
31239;BME280;17871;31.584;74.450;2023-04-09T11:44:07;98539.72;;;33.40;26.57
31239;BME280;17871;31.584;74.450;2023-04-09T11:46:37;98540.38;;;33.53;26.50
31239;BME280;17871;31.584;74.450;2023-04-09T11:49:06;98541.66;;;33.38;27.27
31239;BME280;17871;31.584;74.450;2023-04-09T11:51:36;98536.75;;;33.33;27.48
31239;BME280;17871;31.584;74.450;2023-04-09T11:54:06;98542.81;;;33.24;26.22
31239;BME280;17871;31.584;74.450;2023-04-09T11:56:36;98540.97;;;33.36;27.10
31239;BME280;17871;31.584;74.450;2023-04-09T11:59:05;98545.59;;;33.23;26.02
31239;BME280;17871;31.584;74.450;2023-04-09T12:01:34;98543.84;;;33.33;26.40
31239;BME280;17871;31.584;74.450;2023-04-09T12:04:03;98540.06;;;33.26;27.37
31239;BME280;17871;31.584;74.450;2023-04-09T12:06:39;98540.66;;;33.29;26.90
31239;BME280;17871;31.584;74.450;2023-04-09T12:09:09;98541.31;;;33.11;27.17
31239;BME280;17871;31.584;74.450;2023-04-09T12:11:44;98539.84;;;33.18;27.83
31239;BME280;17871;31.584;74.450;2023-04-09T12:14:17;98537.50;;;32.93;27.25
31239;BME280;17871;31.584;74.450;2023-04-09T12:16:53;98527.59;;;33.06;27.44
31239;BME280;17871;31.584;74.450;2023-04-09T12:19:24;98534.78;;;33.04;28.42
31239;BME280;17871;31.584;74.450;2023-04-09T12:21:55;98521.63;;;32.93;27.62
31239;BME280;17871;31.584;74.450;2023-04-09T12:24:26;98524.88;;;32.85;27.71
31239;BME280;17871;31.584;74.450;2023-04-09T12:26:56;98535.88;;;32.69;27.20
31239;BME280;17871;31.584;74.450;2023-04-09T12:29:25;98533.59;;;32.65;27.72
31239;BME280;17871;31.584;74.450;2023-04-09T12:31:56;98530.84;;;32.66;28.94
31239;BME280;17871;31.584;74.450;2023-04-09T12:34:26;98523.13;;;32.52;28.90
31239;BME280;17871;31.584;74.450;2023-04-09T12:36:55;98526.88;;;32.50;27.50
31239;BME280;17871;31.584;74.450;2023-04-09T12:39:24;98528.91;;;32.46;28.85
31239;BME280;17871;31.584;74.450;2023-04-09T12:41:54;98522.78;;;32.34;28.07
31239;BME280;17871;31.584;74.450;2023-04-09T12:44:23;98522.66;;;32.25;28.64
31239;BME280;17871;31.584;74.450;2023-04-09T12:46:52;98522.09;;;32.10;28.32
31239;BME280;17871;31.584;74.450;2023-04-09T12:49:21;98521.47;;;32.18;28.63
31239;BME280;17871;31.584;74.450;2023-04-09T12:51:50;98531.56;;;32.13;28.81
31239;BME280;17871;31.584;74.450;2023-04-09T12:54:19;98525.28;;;32.03;28.69
31239;BME280;17871;31.584;74.450;2023-04-09T12:56:48;98522.19;;;31.98;29.00
31239;BME280;17871;31.584;74.450;2023-04-09T12:59:17;98536.09;;;31.88;29.78
31239;BME280;17871;31.584;74.450;2023-04-09T13:01:47;98520.94;;;31.79;30.45
31239;BME280;17871;31.584;74.450;2023-04-09T13:04:16;98523.78;;;31.65;30.44
31239;BME280;17871;31.584;74.450;2023-04-09T13:06:45;98523.56;;;31.57;30.58
31239;BME280;17871;31.584;74.450;2023-04-09T13:09:15;98523.19;;;31.51;29.78
31239;BME280;17871;31.584;74.450;2023-04-09T13:11:44;98528.28;;;31.41;30.50
31239;BME280;17871;31.584;74.450;2023-04-09T13:14:13;98524.88;;;31.28;30.77
31239;BME280;17871;31.584;74.450;2023-04-09T13:16:43;98526.28;;;31.21;31.13
31239;BME280;17871;31.584;74.450;2023-04-09T13:19:12;98524.44;;;31.10;31.56
31239;BME280;17871;31.584;74.450;2023-04-09T13:21:41;98524.06;;;31.04;31.96
31239;BME280;17871;31.584;74.450;2023-04-09T13:24:10;98525.56;;;30.95;31.33
31239;BME280;17871;31.584;74.450;2023-04-09T13:26:40;98526.13;;;30.87;31.46
31239;BME280;17871;31.584;74.450;2023-04-09T13:29:09;98528.59;;;30.78;31.48